createdAt,value
2022-12-14T00:01:55.846Z,76.77
2022-12-14T00:04:23.904Z,76.82
2022-12-14T00:06:51.746Z,77.01
2022-12-14T00:09:19.617Z,77.31
2022-12-14T00:11:47.688Z,76.88
2022-12-14T00:14:15.763Z,76.58
2022-12-14T00:16:43.828Z,77.60
2022-12-14T00:19:12.315Z,76.59
2022-12-14T00:21:40.211Z,77.81
2022-12-14T00:24:08.219Z,77.23
2022-12-14T00:26:36.204Z,77.59
2022-12-14T00:29:04.179Z,76.89
2022-12-14T00:31:32.701Z,77.48
2022-12-14T00:34:01.539Z,77.08
2022-12-14T00:36:31.882Z,77.46
2022-12-14T00:39:00.262Z,77.08
2022-12-14T00:41:28.278Z,76.91
2022-12-14T00:43:56.323Z,77.49
2022-12-14T00:46:24.410Z,76.49
2022-12-14T00:48:52.578Z,77.20
2022-12-14T00:51:20.528Z,76.04
2022-12-14T00:53:48.447Z,76.75
2022-12-14T00:56:16.603Z,76.11
2022-12-14T00:58:44.407Z,76.42
2022-12-14T01:01:13.923Z,77.67
2022-12-14T01:03:42.585Z,76.66
2022-12-14T01:06:19.871Z,77.24
2022-12-14T01:08:48.858Z,76.51
2022-12-14T01:11:16.887Z,77.20
2022-12-14T01:13:44.805Z,77.90
2022-12-14T01:16:18.083Z,77.93
2022-12-14T01:18:46.197Z,77.80
2022-12-14T01:21:17.224Z,78.38
2022-12-14T01:23:46.915Z,78.36
2022-12-14T01:26:16.763Z,79.70
2022-12-14T01:28:46.183Z,79.46
2022-12-14T01:31:17.841Z,79.27
2022-12-14T01:33:46.304Z,80.03
2022-12-14T01:36:17.361Z,78.75
2022-12-14T01:38:46.329Z,78.22
2022-12-14T01:41:28.800Z,78.73
2022-12-14T01:44:16.668Z,78.30
2022-12-14T01:47:01.491Z,78.49
2022-12-14T01:49:56.350Z,78.27
2022-12-14T01:52:40.282Z,78.04
2022-12-14T01:55:16.506Z,78.31
2022-12-14T01:57:47.279Z,78.95
2022-12-14T02:00:17.082Z,78.66
2022-12-14T02:02:51.617Z,79.00
2022-12-14T02:05:22.197Z,78.66
2022-12-14T02:07:53.628Z,77.99
2022-12-14T02:10:24.626Z,78.93
2022-12-14T02:13:04.503Z,78.98
2022-12-14T02:25:07.172Z,79.00
2022-12-14T02:28:01.173Z,79.47
2022-12-14T02:30:35.106Z,79.60
2022-12-14T02:33:18.079Z,78.80
2022-12-14T02:35:57.564Z,79.53
2022-12-14T02:38:43.293Z,79.17
2022-12-14T02:41:24.260Z,78.80
2022-12-14T02:44:14.869Z,78.32
2022-12-14T02:46:55.391Z,78.57
2022-12-14T02:49:53.951Z,77.98
2022-12-14T02:52:51.817Z,77.58
2022-12-14T02:55:53.348Z,77.06
2022-12-14T03:00:47.117Z,77.27
2022-12-14T03:03:15.227Z,77.25
2022-12-14T03:05:42.979Z,76.48
2022-12-14T03:08:14.406Z,77.13
2022-12-14T03:10:58.003Z,76.48
2022-12-14T03:13:33.131Z,76.11
2022-12-14T03:16:20.197Z,76.20
2022-12-14T03:19:03.711Z,76.51
2022-12-14T03:21:37.079Z,75.92
2022-12-14T03:24:10.921Z,75.77
2022-12-14T03:26:49.409Z,76.89
2022-12-14T03:29:28.939Z,76.33
2022-12-14T03:32:01.817Z,75.29
2022-12-14T03:34:40.947Z,75.32
2022-12-14T03:37:12.092Z,74.68
2022-12-14T03:39:42.653Z,75.13
2022-12-14T03:42:10.510Z,75.07
2022-12-14T03:45:02.841Z,75.13
2022-12-14T03:47:39.344Z,74.85
2022-12-14T03:50:16.233Z,75.10
2022-12-14T03:52:52.439Z,74.66
2022-12-14T03:55:43.315Z,74.81
2022-12-14T03:58:16.936Z,75.09
2022-12-14T04:00:51.027Z,73.95
2022-12-14T04:03:43.244Z,74.64
2022-12-14T04:06:29.789Z,73.04
2022-12-14T04:09:10.844Z,73.99
2022-12-14T04:12:05.587Z,73.86
2022-12-14T04:15:03.039Z,74.13
2022-12-14T04:17:54.034Z,73.99
2022-12-14T04:20:31.221Z,73.24
2022-12-14T04:23:07.644Z,73.38
2022-12-14T04:26:00.136Z,73.46
2022-12-14T04:29:12.745Z,73.52
2022-12-14T04:31:46.225Z,73.84
2022-12-14T04:34:21.211Z,73.42
2022-12-14T04:37:02.385Z,72.48
2022-12-14T04:39:44.777Z,74.34
2022-12-14T04:42:15.661Z,73.53
2022-12-14T04:44:49.651Z,73.14
2022-12-14T04:47:19.409Z,71.90
2022-12-14T04:49:50.060Z,72.76
2022-12-14T04:52:21.825Z,73.39
2022-12-14T04:55:12.337Z,72.76
2022-12-14T04:57:53.441Z,73.74
2022-12-14T05:00:21.493Z,72.16
2022-12-14T05:03:04.810Z,72.47
2022-12-14T05:06:00.131Z,72.72
2022-12-14T05:08:37.595Z,72.59
2022-12-14T05:14:28.072Z,72.71
2022-12-14T05:16:56.984Z,73.79
2022-12-14T05:19:26.821Z,73.33
2022-12-14T05:21:55.664Z,72.64
2022-12-14T05:24:23.476Z,72.99
2022-12-14T05:26:51.431Z,72.65
2022-12-14T05:29:19.419Z,72.97
2022-12-14T05:31:49.431Z,73.17
2022-12-14T05:34:18.213Z,73.74
2022-12-14T05:36:46.339Z,72.64
2022-12-14T05:39:15.490Z,73.90
2022-12-14T05:41:44.248Z,73.80
2022-12-14T05:44:12.165Z,73.73
2022-12-14T05:46:40.384Z,73.78
2022-12-14T05:49:08.741Z,73.76
2022-12-14T05:51:36.692Z,74.59
2022-12-14T05:54:05.655Z,74.93
2022-12-14T05:56:33.723Z,74.01
2022-12-14T05:59:02.851Z,75.31
2022-12-14T06:01:30.840Z,74.29
2022-12-14T06:03:58.883Z,73.95
2022-12-14T06:06:27.020Z,74.77
2022-12-14T06:08:54.881Z,73.60
2022-12-14T06:11:23.629Z,74.47
2022-12-14T06:13:52.068Z,73.95
2022-12-14T06:16:25.693Z,74.54
2022-12-14T06:18:58.496Z,76.10
2022-12-14T06:21:28.920Z,75.33
2022-12-14T06:23:57.435Z,75.25
2022-12-14T06:26:26.692Z,77.05
2022-12-14T06:28:55.863Z,76.72
2022-12-14T06:31:26.136Z,77.92
2022-12-14T06:33:55.034Z,76.43
2022-12-14T06:36:25.821Z,76.30
2022-12-14T06:38:56.367Z,77.32
2022-12-14T06:41:25.059Z,78.28
2022-12-14T06:43:53.993Z,78.15
2022-12-14T06:46:23.416Z,77.35
2022-12-14T06:48:53.524Z,76.69
2022-12-14T06:51:23.395Z,77.07
2022-12-14T06:53:53.064Z,77.58
2022-12-14T06:56:23.159Z,76.74
2022-12-14T06:58:51.252Z,77.38
2022-12-14T07:01:21.415Z,77.27
2022-12-14T07:03:55.189Z,77.22
2022-12-14T07:06:24.401Z,76.37
2022-12-14T07:08:57.387Z,76.48
2022-12-14T07:11:27.029Z,75.20
2022-12-14T07:13:55.659Z,74.38
2022-12-14T07:16:29.345Z,76.15
2022-12-14T07:18:58.156Z,75.88
2022-12-14T07:21:26.872Z,76.62
2022-12-14T07:23:54.844Z,75.59
2022-12-14T07:26:25.927Z,77.22
2022-12-14T07:28:54.838Z,77.31
2022-12-14T07:31:38.221Z,74.54
2022-12-14T07:34:06.412Z,74.60
2022-12-14T07:36:34.581Z,73.24
2022-12-14T07:39:02.493Z,73.27
2022-12-14T07:41:32.011Z,72.84
2022-12-14T07:44:03.381Z,72.37
2022-12-14T07:46:34.998Z,71.78
2022-12-14T07:49:04.237Z,74.25
2022-12-14T07:51:34.065Z,75.99
2022-12-14T07:54:04.269Z,74.47
2022-12-14T07:56:35.753Z,76.03
2022-12-14T07:59:05.905Z,75.21
2022-12-14T08:01:35.904Z,74.68
2022-12-14T08:04:07.947Z,75.35
2022-12-14T08:06:37.014Z,76.19
2022-12-14T08:09:06.747Z,75.46
2022-12-14T08:11:35.139Z,76.78
2022-12-14T08:28:57.353Z,79.41
2022-12-14T08:31:28.132Z,79.96
2022-12-14T08:33:58.083Z,80.21
2022-12-14T08:36:33.041Z,81.49
2022-12-14T08:39:03.640Z,80.62
2022-12-14T08:41:32.210Z,78.99
2022-12-14T08:44:01.649Z,77.54
2022-12-14T08:46:31.662Z,75.98
2022-12-14T08:49:00.298Z,74.76
2022-12-14T08:51:28.902Z,73.56
2022-12-14T08:53:58.468Z,73.78
2022-12-14T08:56:28.250Z,74.52
2022-12-14T09:01:55.941Z,74.52
2022-12-14T09:04:24.368Z,73.92
2022-12-14T09:06:52.394Z,74.82
2022-12-14T09:09:20.248Z,72.82
2022-12-14T09:11:48.380Z,71.19
2022-12-14T09:14:16.232Z,70.16
2022-12-14T09:16:44.266Z,70.90
2022-12-14T09:19:12.683Z,69.43
2022-12-14T09:21:40.777Z,70.67
2022-12-14T09:24:09.544Z,68.04
2022-12-14T09:26:37.585Z,67.81
2022-12-14T09:29:05.672Z,69.23
2022-12-14T09:31:33.987Z,68.91
2022-12-14T09:34:02.012Z,69.71
2022-12-14T09:36:30.031Z,68.34
2022-12-14T09:38:59.662Z,69.41
2022-12-14T09:41:36.503Z,68.28
2022-12-14T09:44:29.494Z,66.27
2022-12-14T09:47:18.408Z,67.58
2022-12-14T09:49:49.196Z,67.36
2022-12-14T09:52:21.532Z,67.06
2022-12-14T09:54:50.567Z,67.23
2022-12-14T09:57:30.765Z,67.80
2022-12-14T09:59:58.780Z,66.37
2022-12-14T10:02:36.125Z,70.09
2022-12-14T10:05:42.562Z,68.80
2022-12-14T10:08:31.035Z,71.75
2022-12-14T10:11:23.214Z,69.00
2022-12-14T10:14:00.131Z,70.09
2022-12-14T10:16:51.766Z,70.47
2022-12-14T10:19:35.639Z,69.90
2022-12-14T10:22:12.365Z,72.69
2022-12-14T10:25:05.841Z,71.07
2022-12-14T10:27:54.116Z,69.76
2022-12-14T10:30:23.485Z,69.46
2022-12-14T10:33:06.275Z,67.20
2022-12-14T10:36:00.219Z,68.54
2022-12-14T10:38:39.390Z,66.50
2022-12-14T10:41:49.455Z,65.42
2022-12-14T10:44:56.090Z,62.97
2022-12-14T10:47:42.168Z,62.97
2022-12-14T10:50:19.008Z,61.39
2022-12-14T10:52:53.842Z,60.54
2022-12-14T10:55:30.067Z,61.40
2022-12-14T10:57:58.070Z,63.17
2022-12-14T11:00:26.155Z,61.81
2022-12-14T11:02:57.582Z,64.30
2022-12-14T11:06:11.146Z,65.01
2022-12-14T11:08:48.707Z,63.66
2022-12-14T11:11:21.291Z,64.53
2022-12-14T11:13:56.720Z,67.84
2022-12-14T11:16:39.024Z,67.53
2022-12-14T11:19:24.967Z,65.25
2022-12-14T11:22:20.142Z,64.66
2022-12-14T11:24:50.163Z,67.57
2022-12-14T11:27:21.405Z,64.45
2022-12-14T11:29:51.346Z,63.58
2022-12-14T11:32:25.067Z,63.84
2022-12-14T11:35:16.723Z,64.48
2022-12-14T11:37:45.873Z,66.63
2022-12-14T11:40:39.874Z,68.89
2022-12-14T11:43:17.864Z,70.58
2022-12-14T11:45:51.903Z,67.98
2022-12-14T11:48:22.550Z,70.26
2022-12-14T11:50:56.704Z,67.52
2022-12-14T11:53:24.619Z,69.40
2022-12-14T11:55:58.659Z,67.76
2022-12-14T11:58:32.671Z,70.35
2022-12-14T12:01:12.132Z,69.34
2022-12-14T12:03:48.083Z,69.25
2022-12-14T12:06:24.913Z,69.45
2022-12-14T12:09:00.992Z,69.61
2022-12-14T12:11:31.709Z,67.77
2022-12-14T12:14:28.016Z,69.45
2022-12-14T12:16:56.394Z,69.81
2022-12-14T12:19:35.127Z,69.09
2022-12-14T12:22:05.709Z,69.55
2022-12-14T12:25:08.291Z,69.70
2022-12-14T12:27:34.036Z,69.09
2022-12-14T12:30:19.951Z,66.53
2022-12-14T12:32:52.997Z,66.90
2022-12-14T12:35:30.557Z,67.47
2022-12-14T12:38:33.891Z,69.46
2022-12-14T12:41:10.803Z,68.46
2022-12-14T12:43:58.683Z,69.21
2022-12-14T12:47:14.899Z,68.74
2022-12-14T12:49:34.281Z,68.39
2022-12-14T12:52:06.801Z,68.35
2022-12-14T12:54:40.489Z,67.03
2022-12-14T12:57:12.655Z,68.26
2022-12-14T12:59:47.260Z,67.96
2022-12-14T13:02:26.038Z,66.35
2022-12-14T13:04:55.374Z,66.60
2022-12-14T13:07:36.101Z,67.24
2022-12-14T13:10:16.088Z,65.76
2022-12-14T13:12:51.347Z,67.15
2022-12-14T13:15:49.638Z,66.23
2022-12-14T13:18:59.504Z,66.11
2022-12-14T13:21:35.245Z,67.14
2022-12-14T13:24:05.084Z,68.18
2022-12-14T13:26:59.273Z,66.71
2022-12-14T13:30:01.182Z,66.42
2022-12-14T13:32:54.516Z,65.56
2022-12-14T13:35:40.843Z,69.46
2022-12-14T13:38:32.845Z,66.29
2022-12-14T13:41:15.263Z,66.24
2022-12-14T13:43:52.374Z,68.98
2022-12-14T13:46:27.000Z,68.41
2022-12-14T13:49:01.024Z,69.31
2022-12-14T13:51:46.833Z,67.45
2022-12-14T13:54:21.027Z,66.87
2022-12-14T13:56:49.393Z,66.49
2022-12-14T13:59:29.716Z,69.76
2022-12-14T14:02:01.398Z,67.94
2022-12-14T14:04:31.405Z,68.55
2022-12-14T14:07:23.956Z,68.57
2022-12-14T14:10:04.997Z,68.10
2022-12-14T14:12:41.870Z,69.71
2022-12-14T14:15:24.285Z,69.69
2022-12-14T14:17:56.584Z,68.66
2022-12-14T14:29:25.860Z,68.42
2022-12-14T14:31:55.451Z,69.98
2022-12-14T14:34:38.740Z,70.25
2022-12-14T14:37:21.780Z,70.24
2022-12-14T14:40:21.973Z,70.92
2022-12-14T14:43:16.877Z,71.04
2022-12-14T14:45:55.403Z,69.64
2022-12-14T14:48:43.279Z,70.92
2022-12-14T14:51:11.235Z,69.87
2022-12-14T14:53:40.494Z,67.87
2022-12-14T14:56:26.826Z,68.92
2022-12-14T14:59:17.287Z,69.14
2022-12-14T15:01:58.528Z,71.10
2022-12-14T15:04:34.447Z,69.30
2022-12-14T15:07:06.116Z,69.91
2022-12-14T15:09:41.757Z,70.45
2022-12-14T15:12:31.621Z,70.90
2022-12-14T15:15:05.117Z,70.75
2022-12-14T15:17:33.423Z,70.45
2022-12-14T15:20:03.041Z,70.44
2022-12-14T15:22:41.947Z,71.59
2022-12-14T15:25:23.404Z,71.05
2022-12-14T15:27:52.930Z,70.15
2022-12-14T15:30:26.883Z,72.58
2022-12-14T15:33:10.578Z,72.01
2022-12-14T15:35:42.874Z,70.91
2022-12-14T15:38:26.553Z,71.63
2022-12-14T15:40:57.553Z,71.73
2022-12-14T15:43:27.663Z,72.34
2022-12-14T15:46:04.438Z,71.92
2022-12-14T15:48:36.531Z,72.95
2022-12-14T15:51:14.438Z,71.69
2022-12-14T15:53:51.367Z,73.54
2022-12-14T15:57:00.738Z,73.55
2022-12-14T16:00:00.039Z,72.40
2022-12-14T16:02:33.119Z,72.27
2022-12-14T16:05:03.575Z,70.96
2022-12-14T16:07:39.682Z,72.03
2022-12-14T16:10:26.354Z,72.71
2022-12-14T16:13:00.731Z,71.73
2022-12-14T16:15:30.311Z,72.07
2022-12-14T16:18:02.495Z,73.79
2022-12-14T16:20:36.235Z,72.49
2022-12-14T16:23:28.112Z,72.32
2022-12-14T16:26:21.823Z,72.34
2022-12-14T16:28:50.361Z,71.38
2022-12-14T16:31:24.597Z,71.28
2022-12-14T16:34:14.724Z,72.90
2022-12-14T16:36:56.273Z,71.80
2022-12-14T16:39:40.152Z,72.79
2022-12-14T16:42:20.277Z,73.48
2022-12-14T16:44:49.388Z,73.54
2022-12-14T16:47:48.960Z,73.00
2022-12-14T16:50:55.050Z,72.60
2022-12-14T16:53:26.603Z,71.75
2022-12-14T16:56:07.097Z,72.93
2022-12-14T16:58:36.721Z,72.93
2022-12-14T17:01:08.338Z,72.21
2022-12-14T17:03:38.404Z,71.84
2022-12-14T17:06:07.912Z,73.05
2022-12-14T17:08:36.516Z,72.05
2022-12-14T17:11:06.240Z,72.95
2022-12-14T17:13:34.869Z,71.39
2022-12-14T17:16:06.663Z,71.87
2022-12-14T17:18:39.446Z,73.54
2022-12-14T17:21:15.833Z,72.21
2022-12-14T17:23:46.279Z,73.00
2022-12-14T17:26:28.335Z,73.53
2022-12-14T17:28:57.126Z,74.20
2022-12-14T17:31:27.628Z,75.54
2022-12-14T17:33:57.888Z,75.47
2022-12-14T17:36:26.082Z,74.99
2022-12-14T17:38:54.409Z,74.26
2022-12-14T17:41:27.498Z,74.84
2022-12-14T17:43:57.459Z,75.96
2022-12-14T17:46:26.427Z,75.47
2022-12-14T17:48:55.082Z,76.09
2022-12-14T17:51:29.152Z,75.45
2022-12-14T17:53:59.930Z,76.20
2022-12-14T17:56:28.650Z,75.52
2022-12-14T17:58:57.071Z,75.94
2022-12-14T18:01:26.415Z,75.81
2022-12-14T18:03:55.025Z,76.04
2022-12-14T18:06:23.149Z,76.01
2022-12-14T18:08:51.817Z,76.60
2022-12-14T18:11:23.373Z,77.09
2022-12-14T18:13:52.323Z,76.98
2022-12-14T18:16:24.055Z,76.39
2022-12-14T18:18:54.632Z,78.10
2022-12-14T18:21:25.978Z,77.73
2022-12-14T18:23:55.242Z,78.72
2022-12-14T18:26:24.127Z,78.25
2022-12-14T18:28:54.804Z,78.83
2022-12-14T18:31:27.480Z,79.05
2022-12-14T18:33:56.192Z,79.81
2022-12-14T18:36:24.797Z,80.08
2022-12-14T18:38:53.519Z,80.72
2022-12-14T18:41:24.793Z,80.41
2022-12-14T18:43:54.656Z,80.96
2022-12-14T18:46:23.869Z,81.37
2022-12-14T18:48:51.904Z,80.99
2022-12-14T18:51:27.216Z,81.85
2022-12-14T18:53:58.476Z,82.32
2022-12-14T18:56:28.395Z,82.19
2022-12-14T18:58:56.794Z,82.94
2022-12-14T19:01:25.955Z,83.74
2022-12-14T19:03:54.735Z,83.24
2022-12-14T19:06:44.064Z,84.56
2022-12-14T19:09:15.243Z,84.26
2022-12-14T19:11:44.948Z,84.68
2022-12-14T19:14:13.585Z,84.07
2022-12-14T19:16:42.163Z,84.44
2022-12-14T19:19:10.877Z,84.62
2022-12-14T19:21:39.210Z,84.85
2022-12-14T19:24:08.931Z,84.69
2022-12-14T19:26:39.525Z,85.22
2022-12-14T19:29:07.831Z,84.59
2022-12-14T19:31:36.181Z,84.75
2022-12-14T19:34:04.799Z,85.97
2022-12-14T19:36:33.216Z,85.60
2022-12-14T19:39:01.531Z,85.14
2022-12-14T19:41:29.896Z,86.12
2022-12-14T19:43:58.769Z,85.29
2022-12-14T19:46:27.244Z,86.42
2022-12-14T19:48:56.034Z,86.15
2022-12-14T19:51:24.649Z,86.35
2022-12-14T19:53:55.152Z,86.84
2022-12-14T19:56:23.728Z,87.42
2022-12-14T19:58:52.418Z,87.72
2022-12-14T20:01:20.797Z,87.87
2022-12-14T20:03:49.694Z,87.18
2022-12-14T20:06:18.098Z,87.95
2022-12-14T20:08:49.511Z,88.42
2022-12-14T20:11:19.867Z,87.95
2022-12-14T20:13:51.836Z,86.68
2022-12-14T20:16:24.811Z,87.09
2022-12-14T20:18:53.831Z,85.69
2022-12-14T20:21:23.273Z,85.32
2022-12-14T20:24:01.428Z,86.22
2022-12-14T20:37:26.134Z,87.08
2022-12-14T20:39:54.562Z,86.59
2022-12-14T20:42:22.789Z,86.89
2022-12-14T20:44:51.109Z,87.51
2022-12-14T20:47:19.237Z,87.21
2022-12-14T20:49:47.272Z,86.31
2022-12-14T20:52:15.403Z,86.01
2022-12-14T20:54:43.593Z,85.56
2022-12-14T20:57:11.496Z,85.11
2022-12-14T20:59:39.512Z,83.35
2022-12-14T21:02:15.436Z,84.74
2022-12-14T21:04:43.645Z,85.23
2022-12-14T21:07:11.610Z,85.42
2022-12-14T21:09:40.108Z,85.59
2022-12-14T21:12:21.773Z,85.24
2022-12-14T21:14:54.176Z,85.61
2022-12-14T21:17:24.955Z,85.97
2022-12-14T21:19:53.776Z,86.85
2022-12-14T21:22:24.327Z,86.01
2022-12-14T21:25:02.984Z,86.39
2022-12-14T21:27:33.928Z,86.35
2022-12-14T21:30:01.836Z,86.05
2022-12-14T21:32:30.802Z,86.45
2022-12-14T21:34:58.602Z,86.00
2022-12-14T21:37:26.557Z,86.69
2022-12-14T21:39:55.709Z,87.03
2022-12-14T21:42:24.307Z,86.00
2022-12-14T21:44:53.365Z,85.75
2022-12-14T21:47:24.487Z,85.48
2022-12-14T21:49:52.614Z,86.21
2022-12-14T21:52:23.994Z,85.71
2022-12-14T21:54:51.976Z,85.25
2022-12-14T21:57:50.590Z,86.08
2022-12-14T22:00:19.612Z,85.35
2022-12-14T22:02:47.746Z,85.38
2022-12-14T22:05:18.996Z,86.18
2022-12-14T22:07:47.277Z,86.53
2022-12-14T22:10:18.701Z,86.08
2022-12-14T22:12:49.485Z,85.95
2022-12-14T22:15:17.512Z,85.81
2022-12-14T22:17:45.388Z,86.13
2022-12-14T22:20:14.834Z,86.64
2022-12-14T22:22:42.771Z,86.82
2022-12-14T22:25:10.678Z,86.07
2022-12-14T22:27:38.753Z,86.28
2022-12-14T22:30:08.781Z,85.60
2022-12-14T22:32:36.762Z,84.73
2022-12-14T22:35:04.989Z,85.92
2022-12-14T22:37:32.898Z,85.75
2022-12-14T22:40:19.491Z,86.01
2022-12-14T22:42:47.477Z,85.52
2022-12-14T22:45:15.454Z,85.61
2022-12-14T22:47:43.516Z,86.23
2022-12-14T22:50:12.078Z,86.49
2022-12-14T22:52:40.584Z,86.35
2022-12-14T22:55:08.740Z,86.34
2022-12-14T22:57:41.870Z,86.39
2022-12-14T23:00:15.987Z,86.67
2022-12-14T23:02:48.297Z,87.38
2022-12-14T23:05:17.927Z,86.69
2022-12-14T23:07:45.998Z,86.45
2022-12-14T23:10:32.577Z,87.24
2022-12-14T23:13:19.004Z,88.11
2022-12-14T23:16:05.304Z,87.48
2022-12-14T23:18:51.936Z,87.62
2022-12-14T23:21:39.412Z,87.11
2022-12-14T23:24:25.996Z,86.76
2022-12-14T23:27:12.888Z,86.40
2022-12-14T23:29:59.681Z,86.80
2022-12-14T23:32:45.974Z,86.46
2022-12-14T23:35:32.811Z,85.72
2022-12-14T23:38:23.604Z,86.80
2022-12-14T23:41:10.882Z,86.74
2022-12-14T23:43:57.414Z,86.44
2022-12-14T23:46:43.930Z,87.94
2022-12-14T23:49:30.539Z,86.99
2022-12-14T23:52:17.188Z,87.11
2022-12-14T23:55:03.543Z,87.51
2022-12-14T23:57:49.752Z,87.60
